sensor_id;sensor_type;location;lat;lon;timestamp;temperature;humidity
62809;DHT22;48848;39.002;-94.584;2022-09-27T00:00:34;22.20;41.60
62809;DHT22;48848;39.002;-94.584;2022-09-27T00:03:01;22.10;41.60
62809;DHT22;48848;39.002;-94.584;2022-09-27T00:05:28;22.20;43.00
62809;DHT22;48848;39.002;-94.584;2022-09-27T00:07:54;22.40;42.30
62809;DHT22;48848;39.002;-94.584;2022-09-27T00:10:20;22.40;41.40
62809;DHT22;48848;39.002;-94.584;2022-09-27T00:12:46;22.20;41.40
62809;DHT22;48848;39.002;-94.584;2022-09-27T00:15:12;22.10;41.50
62809;DHT22;48848;39.002;-94.584;2022-09-27T00:17:39;22.00;41.40
62809;DHT22;48848;39.002;-94.584;2022-09-27T00:20:08;21.90;41.30
62809;DHT22;48848;39.002;-94.584;2022-09-27T00:22:34;21.80;42.00
62809;DHT22;48848;39.002;-94.584;2022-09-27T00:25:00;21.80;42.10
62809;DHT22;48848;39.002;-94.584;2022-09-27T00:27:26;22.00;44.90
62809;DHT22;48848;39.002;-94.584;2022-09-27T00:29:52;22.20;45.60
62809;DHT22;48848;39.002;-94.584;2022-09-27T00:32:18;22.40;45.80
62809;DHT22;48848;39.002;-94.584;2022-09-27T00:34:44;22.60;44.50
62809;DHT22;48848;39.002;-94.584;2022-09-27T00:37:10;22.70;44.20
62809;DHT22;48848;39.002;-94.584;2022-09-27T00:39:36;22.80;45.10
62809;DHT22;48848;39.002;-94.584;2022-09-27T00:42:03;22.80;43.80
62809;DHT22;48848;39.002;-94.584;2022-09-27T00:49:43;22.40;42.30
62809;DHT22;48848;39.002;-94.584;2022-09-27T00:52:12;22.30;42.00
62809;DHT22;48848;39.002;-94.584;2022-09-27T00:54:41;22.30;41.70
62809;DHT22;48848;39.002;-94.584;2022-09-27T00:57:09;22.20;41.70
62809;DHT22;48848;39.002;-94.584;2022-09-27T00:59:39;22.20;41.30
62809;DHT22;48848;39.002;-94.584;2022-09-27T01:02:06;22.20;41.00
62809;DHT22;48848;39.002;-94.584;2022-09-27T01:04:32;22.20;42.90
62809;DHT22;48848;39.002;-94.584;2022-09-27T01:06:59;22.40;44.20
62809;DHT22;48848;39.002;-94.584;2022-09-27T01:09:25;22.70;41.80
62809;DHT22;48848;39.002;-94.584;2022-09-27T01:22:00;23.40;41.80
62809;DHT22;48848;39.002;-94.584;2022-09-27T01:27:25;23.50;41.70
62809;DHT22;48848;39.002;-94.584;2022-09-27T01:38:13;23.70;41.80
62809;DHT22;48848;39.002;-94.584;2022-09-27T01:40:42;23.70;41.40
62809;DHT22;48848;39.002;-94.584;2022-09-27T01:43:15;23.70;41.20
62809;DHT22;48848;39.002;-94.584;2022-09-27T01:45:44;23.70;41.10
62809;DHT22;48848;39.002;-94.584;2022-09-27T01:48:20;23.60;40.40
62809;DHT22;48848;39.002;-94.584;2022-09-27T01:53:35;22.90;40.50
62809;DHT22;48848;39.002;-94.584;2022-09-27T01:56:02;22.80;40.20
62809;DHT22;48848;39.002;-94.584;2022-09-27T01:58:33;22.60;40.00
62809;DHT22;48848;39.002;-94.584;2022-09-27T02:01:01;22.50;41.10
62809;DHT22;48848;39.002;-94.584;2022-09-27T02:03:32;22.70;41.10
62809;DHT22;48848;39.002;-94.584;2022-09-27T02:06:00;22.90;40.60
62809;DHT22;48848;39.002;-94.584;2022-09-27T02:10:59;23.20;40.30
62809;DHT22;48848;39.002;-94.584;2022-09-27T02:13:35;23.40;40.00
62809;DHT22;48848;39.002;-94.584;2022-09-27T02:16:12;23.40;40.00
62809;DHT22;48848;39.002;-94.584;2022-09-27T02:18:49;23.50;40.10
62809;DHT22;48848;39.002;-94.584;2022-09-27T02:21:16;23.50;40.10
62809;DHT22;48848;39.002;-94.584;2022-09-27T02:23:55;23.50;40.20
62809;DHT22;48848;39.002;-94.584;2022-09-27T02:26:32;23.50;40.30
62809;DHT22;48848;39.002;-94.584;2022-09-27T02:31:30;23.60;40.30
62809;DHT22;48848;39.002;-94.584;2022-09-27T02:34:06;23.50;40.40
62809;DHT22;48848;39.002;-94.584;2022-09-27T02:36:33;23.60;40.40
62809;DHT22;48848;39.002;-94.584;2022-09-27T02:38:59;23.60;40.60
62809;DHT22;48848;39.002;-94.584;2022-09-27T02:41:25;23.60;40.50
62809;DHT22;48848;39.002;-94.584;2022-09-27T02:43:52;23.60;40.60
62809;DHT22;48848;39.002;-94.584;2022-09-27T02:54:26;23.70;40.40
62809;DHT22;48848;39.002;-94.584;2022-09-27T03:00:00;23.60;41.00
62809;DHT22;48848;39.002;-94.584;2022-09-27T03:05:19;23.50;41.20
62809;DHT22;48848;39.002;-94.584;2022-09-27T03:07:47;23.40;42.20
62809;DHT22;48848;39.002;-94.584;2022-09-27T03:10:17;23.30;41.50
62809;DHT22;48848;39.002;-94.584;2022-09-27T03:12:43;23.20;41.70
62809;DHT22;48848;39.002;-94.584;2022-09-27T03:15:09;23.10;41.60
62809;DHT22;48848;39.002;-94.584;2022-09-27T03:17:35;23.10;42.10
62809;DHT22;48848;39.002;-94.584;2022-09-27T03:20:01;23.00;42.20
62809;DHT22;48848;39.002;-94.584;2022-09-27T03:22:27;22.90;42.40
62809;DHT22;48848;39.002;-94.584;2022-09-27T03:24:53;22.90;42.60
62809;DHT22;48848;39.002;-94.584;2022-09-27T03:27:19;22.80;42.60
62809;DHT22;48848;39.002;-94.584;2022-09-27T03:29:45;22.80;42.80
62809;DHT22;48848;39.002;-94.584;2022-09-27T03:32:11;22.70;42.90
62809;DHT22;48848;39.002;-94.584;2022-09-27T03:34:37;22.70;43.00
62809;DHT22;48848;39.002;-94.584;2022-09-27T03:37:03;22.60;43.00
62809;DHT22;48848;39.002;-94.584;2022-09-27T03:39:28;22.60;43.30
62809;DHT22;48848;39.002;-94.584;2022-09-27T03:41:55;22.50;43.00
62809;DHT22;48848;39.002;-94.584;2022-09-27T03:44:21;22.50;43.40
62809;DHT22;48848;39.002;-94.584;2022-09-27T03:46:47;22.50;43.30
62809;DHT22;48848;39.002;-94.584;2022-09-27T03:49:13;22.40;43.30
62809;DHT22;48848;39.002;-94.584;2022-09-27T03:51:39;22.40;43.60
62809;DHT22;48848;39.002;-94.584;2022-09-27T03:54:07;22.40;43.70
62809;DHT22;48848;39.002;-94.584;2022-09-27T03:56:32;22.30;43.80
62809;DHT22;48848;39.002;-94.584;2022-09-27T03:58:58;22.30;43.50
62809;DHT22;48848;39.002;-94.584;2022-09-27T04:01:25;22.30;43.50
62809;DHT22;48848;39.002;-94.584;2022-09-27T04:03:52;22.30;43.70
62809;DHT22;48848;39.002;-94.584;2022-09-27T04:06:18;22.20;44.40
62809;DHT22;48848;39.002;-94.584;2022-09-27T04:08:44;22.20;43.40
62809;DHT22;48848;39.002;-94.584;2022-09-27T04:11:10;22.20;44.20
62809;DHT22;48848;39.002;-94.584;2022-09-27T04:13:36;22.20;43.80
62809;DHT22;48848;39.002;-94.584;2022-09-27T04:16:02;22.20;43.70
62809;DHT22;48848;39.002;-94.584;2022-09-27T04:18:28;22.10;43.50
62809;DHT22;48848;39.002;-94.584;2022-09-27T04:20:54;22.10;43.50
62809;DHT22;48848;39.002;-94.584;2022-09-27T04:23:20;22.10;43.40
62809;DHT22;48848;39.002;-94.584;2022-09-27T04:25:46;22.10;43.50
62809;DHT22;48848;39.002;-94.584;2022-09-27T04:28:12;22.10;43.40
62809;DHT22;48848;39.002;-94.584;2022-09-27T04:30:38;22.10;43.50
62809;DHT22;48848;39.002;-94.584;2022-09-27T04:33:04;22.00;43.50
62809;DHT22;48848;39.002;-94.584;2022-09-27T04:35:30;21.90;43.50
62809;DHT22;48848;39.002;-94.584;2022-09-27T04:38:14;21.90;43.40
62809;DHT22;48848;39.002;-94.584;2022-09-27T04:40:40;21.90;43.60
62809;DHT22;48848;39.002;-94.584;2022-09-27T04:43:06;21.90;43.60
62809;DHT22;48848;39.002;-94.584;2022-09-27T04:45:32;21.90;43.70
62809;DHT22;48848;39.002;-94.584;2022-09-27T04:47:58;21.90;43.50
62809;DHT22;48848;39.002;-94.584;2022-09-27T04:50:24;21.80;43.40
62809;DHT22;48848;39.002;-94.584;2022-09-27T04:52:50;21.80;43.60
62809;DHT22;48848;39.002;-94.584;2022-09-27T04:55:17;21.80;43.70
62809;DHT22;48848;39.002;-94.584;2022-09-27T04:57:43;21.80;44.00
62809;DHT22;48848;39.002;-94.584;2022-09-27T05:00:09;21.80;43.90
62809;DHT22;48848;39.002;-94.584;2022-09-27T05:02:35;21.80;43.80
62809;DHT22;48848;39.002;-94.584;2022-09-27T05:05:01;21.80;44.00
62809;DHT22;48848;39.002;-94.584;2022-09-27T05:07:27;21.70;43.90
62809;DHT22;48848;39.002;-94.584;2022-09-27T05:09:53;21.70;43.80
62809;DHT22;48848;39.002;-94.584;2022-09-27T05:12:20;21.70;43.60
62809;DHT22;48848;39.002;-94.584;2022-09-27T05:14:46;21.70;43.80
62809;DHT22;48848;39.002;-94.584;2022-09-27T05:17:12;21.70;44.00
62809;DHT22;48848;39.002;-94.584;2022-09-27T05:19:38;21.70;43.90
62809;DHT22;48848;39.002;-94.584;2022-09-27T05:22:04;21.70;44.00
62809;DHT22;48848;39.002;-94.584;2022-09-27T05:24:31;21.60;44.20
62809;DHT22;48848;39.002;-94.584;2022-09-27T05:27:00;21.60;44.40
62809;DHT22;48848;39.002;-94.584;2022-09-27T05:29:26;21.60;44.40
62809;DHT22;48848;39.002;-94.584;2022-09-27T05:31:52;21.60;44.70
62809;DHT22;48848;39.002;-94.584;2022-09-27T05:34:18;21.60;44.50
62809;DHT22;48848;39.002;-94.584;2022-09-27T05:36:48;21.50;44.80
62809;DHT22;48848;39.002;-94.584;2022-09-27T05:39:14;21.60;44.80
62809;DHT22;48848;39.002;-94.584;2022-09-27T05:41:43;21.60;44.70
62809;DHT22;48848;39.002;-94.584;2022-09-27T05:44:09;21.50;44.60
62809;DHT22;48848;39.002;-94.584;2022-09-27T05:46:35;21.50;44.70
62809;DHT22;48848;39.002;-94.584;2022-09-27T05:49:03;21.50;44.70
62809;DHT22;48848;39.002;-94.584;2022-09-27T05:51:29;21.50;44.80
62809;DHT22;48848;39.002;-94.584;2022-09-27T05:53:55;21.50;44.90
62809;DHT22;48848;39.002;-94.584;2022-09-27T05:56:21;21.50;44.90
62809;DHT22;48848;39.002;-94.584;2022-09-27T05:58:47;21.50;44.90
62809;DHT22;48848;39.002;-94.584;2022-09-27T06:01:13;21.40;45.00
62809;DHT22;48848;39.002;-94.584;2022-09-27T06:03:39;21.40;44.90
62809;DHT22;48848;39.002;-94.584;2022-09-27T06:06:05;21.40;45.10
62809;DHT22;48848;39.002;-94.584;2022-09-27T06:08:32;21.40;45.10
62809;DHT22;48848;39.002;-94.584;2022-09-27T06:11:00;21.40;45.10
62809;DHT22;48848;39.002;-94.584;2022-09-27T06:13:28;21.40;45.10
62809;DHT22;48848;39.002;-94.584;2022-09-27T06:15:54;21.40;45.10
62809;DHT22;48848;39.002;-94.584;2022-09-27T06:18:20;21.30;45.20
62809;DHT22;48848;39.002;-94.584;2022-09-27T06:20:46;21.30;45.30
62809;DHT22;48848;39.002;-94.584;2022-09-27T06:23:13;21.30;45.40
62809;DHT22;48848;39.002;-94.584;2022-09-27T06:25:40;21.20;45.50
62809;DHT22;48848;39.002;-94.584;2022-09-27T06:28:06;21.20;45.80
62809;DHT22;48848;39.002;-94.584;2022-09-27T06:30:32;21.20;45.80
62809;DHT22;48848;39.002;-94.584;2022-09-27T06:32:59;21.20;45.90
62809;DHT22;48848;39.002;-94.584;2022-09-27T06:35:25;21.20;46.50
62809;DHT22;48848;39.002;-94.584;2022-09-27T06:37:51;21.10;45.70
62809;DHT22;48848;39.002;-94.584;2022-09-27T06:40:18;21.10;45.70
62809;DHT22;48848;39.002;-94.584;2022-09-27T06:42:43;21.10;45.80
62809;DHT22;48848;39.002;-94.584;2022-09-27T06:45:10;21.10;45.70
62809;DHT22;48848;39.002;-94.584;2022-09-27T06:47:36;21.10;45.70
62809;DHT22;48848;39.002;-94.584;2022-09-27T06:50:02;21.10;46.00
62809;DHT22;48848;39.002;-94.584;2022-09-27T06:52:31;21.10;45.90
62809;DHT22;48848;39.002;-94.584;2022-09-27T06:54:57;21.00;46.20
62809;DHT22;48848;39.002;-94.584;2022-09-27T06:57:23;21.00;46.20
62809;DHT22;48848;39.002;-94.584;2022-09-27T07:00:09;21.00;46.40
62809;DHT22;48848;39.002;-94.584;2022-09-27T07:02:51;21.00;46.60
62809;DHT22;48848;39.002;-94.584;2022-09-27T07:05:18;20.90;46.50
62809;DHT22;48848;39.002;-94.584;2022-09-27T07:07:44;20.90;46.40
62809;DHT22;48848;39.002;-94.584;2022-09-27T07:10:10;20.90;46.50
62809;DHT22;48848;39.002;-94.584;2022-09-27T07:12:36;20.90;46.60
62809;DHT22;48848;39.002;-94.584;2022-09-27T07:15:03;20.90;46.60
62809;DHT22;48848;39.002;-94.584;2022-09-27T07:17:29;20.90;46.50
62809;DHT22;48848;39.002;-94.584;2022-09-27T07:19:55;20.80;46.50
62809;DHT22;48848;39.002;-94.584;2022-09-27T07:22:21;20.80;46.80
62809;DHT22;48848;39.002;-94.584;2022-09-27T07:24:47;20.80;46.90
62809;DHT22;48848;39.002;-94.584;2022-09-27T07:27:13;20.80;47.10
62809;DHT22;48848;39.002;-94.584;2022-09-27T07:29:39;20.80;47.20
62809;DHT22;48848;39.002;-94.584;2022-09-27T07:32:05;20.80;47.20
62809;DHT22;48848;39.002;-94.584;2022-09-27T07:34:34;20.80;47.20
62809;DHT22;48848;39.002;-94.584;2022-09-27T07:37:00;20.80;47.20
62809;DHT22;48848;39.002;-94.584;2022-09-27T07:39:28;20.70;47.10
62809;DHT22;48848;39.002;-94.584;2022-09-27T07:41:54;20.70;47.20
62809;DHT22;48848;39.002;-94.584;2022-09-27T07:44:20;20.70;47.20
62809;DHT22;48848;39.002;-94.584;2022-09-27T07:46:45;20.70;47.30
62809;DHT22;48848;39.002;-94.584;2022-09-27T07:49:11;20.70;47.10
62809;DHT22;48848;39.002;-94.584;2022-09-27T07:51:37;20.60;47.20
62809;DHT22;48848;39.002;-94.584;2022-09-27T07:54:03;20.60;47.30
62809;DHT22;48848;39.002;-94.584;2022-09-27T07:56:29;20.60;47.40
62809;DHT22;48848;39.002;-94.584;2022-09-27T07:58:55;20.60;47.50
62809;DHT22;48848;39.002;-94.584;2022-09-27T08:01:21;20.60;47.60
62809;DHT22;48848;39.002;-94.584;2022-09-27T08:03:47;20.60;47.60
62809;DHT22;48848;39.002;-94.584;2022-09-27T08:06:12;20.60;47.60
62809;DHT22;48848;39.002;-94.584;2022-09-27T08:08:38;20.50;47.60
62809;DHT22;48848;39.002;-94.584;2022-09-27T08:11:11;20.50;47.60
62809;DHT22;48848;39.002;-94.584;2022-09-27T08:13:39;20.50;47.50
62809;DHT22;48848;39.002;-94.584;2022-09-27T08:16:05;20.50;47.70
62809;DHT22;48848;39.002;-94.584;2022-09-27T08:18:30;20.50;47.70
62809;DHT22;48848;39.002;-94.584;2022-09-27T08:20:57;20.50;47.70
62809;DHT22;48848;39.002;-94.584;2022-09-27T08:23:23;20.40;47.90
62809;DHT22;48848;39.002;-94.584;2022-09-27T08:25:53;20.40;47.70
62809;DHT22;48848;39.002;-94.584;2022-09-27T08:28:19;20.40;47.50
62809;DHT22;48848;39.002;-94.584;2022-09-27T08:30:47;20.40;47.60
62809;DHT22;48848;39.002;-94.584;2022-09-27T08:33:13;20.50;47.60
62809;DHT22;48848;39.002;-94.584;2022-09-27T08:35:39;20.40;47.50
62809;DHT22;48848;39.002;-94.584;2022-09-27T08:38:05;20.40;47.70
62809;DHT22;48848;39.002;-94.584;2022-09-27T08:43:13;20.30;47.90
62809;DHT22;48848;39.002;-94.584;2022-09-27T08:45:47;20.30;48.00
62809;DHT22;48848;39.002;-94.584;2022-09-27T08:48:19;20.30;47.90
62809;DHT22;48848;39.002;-94.584;2022-09-27T08:50:46;20.30;48.00
62809;DHT22;48848;39.002;-94.584;2022-09-27T08:55:46;20.30;48.00
62809;DHT22;48848;39.002;-94.584;2022-09-27T09:00:38;20.30;47.80
62809;DHT22;48848;39.002;-94.584;2022-09-27T09:03:04;20.30;47.90
62809;DHT22;48848;39.002;-94.584;2022-09-27T09:05:31;20.30;48.00
62809;DHT22;48848;39.002;-94.584;2022-09-27T09:10:54;20.20;47.80
62809;DHT22;48848;39.002;-94.584;2022-09-27T09:21:28;20.20;48.00
62809;DHT22;48848;39.002;-94.584;2022-09-27T09:26:55;20.10;48.20
62809;DHT22;48848;39.002;-94.584;2022-09-27T09:29:36;20.10;49.10
62809;DHT22;48848;39.002;-94.584;2022-09-27T09:34:54;20.10;48.00
62809;DHT22;48848;39.002;-94.584;2022-09-27T09:37:34;20.10;48.00
62809;DHT22;48848;39.002;-94.584;2022-09-27T09:40:06;20.10;48.40
62809;DHT22;48848;39.002;-94.584;2022-09-27T09:42:41;20.10;48.30
62809;DHT22;48848;39.002;-94.584;2022-09-27T09:47:48;20.00;48.20
62809;DHT22;48848;39.002;-94.584;2022-09-27T09:52:49;20.00;48.40
62809;DHT22;48848;39.002;-94.584;2022-09-27T09:55:22;20.00;48.30
62809;DHT22;48848;39.002;-94.584;2022-09-27T09:57:53;20.00;48.60
62809;DHT22;48848;39.002;-94.584;2022-09-27T10:00:20;20.00;48.40
62809;DHT22;48848;39.002;-94.584;2022-09-27T10:02:46;20.00;48.50
62809;DHT22;48848;39.002;-94.584;2022-09-27T10:05:14;20.00;48.50
62809;DHT22;48848;39.002;-94.584;2022-09-27T10:07:41;19.90;48.50
62809;DHT22;48848;39.002;-94.584;2022-09-27T10:10:07;19.90;48.60
62809;DHT22;48848;39.002;-94.584;2022-09-27T10:12:37;19.90;48.40
62809;DHT22;48848;39.002;-94.584;2022-09-27T10:15:03;19.90;48.50
62809;DHT22;48848;39.002;-94.584;2022-09-27T10:17:36;19.90;48.40
62809;DHT22;48848;39.002;-94.584;2022-09-27T10:20:03;19.90;48.40
62809;DHT22;48848;39.002;-94.584;2022-09-27T10:22:44;19.80;48.60
62809;DHT22;48848;39.002;-94.584;2022-09-27T10:25:12;19.80;48.60
62809;DHT22;48848;39.002;-94.584;2022-09-27T10:27:50;19.80;48.60
62809;DHT22;48848;39.002;-94.584;2022-09-27T10:30:22;19.80;48.60
62809;DHT22;48848;39.002;-94.584;2022-09-27T10:32:49;19.80;48.70
62809;DHT22;48848;39.002;-94.584;2022-09-27T10:37:44;19.80;48.80
62809;DHT22;48848;39.002;-94.584;2022-09-27T10:40:29;19.70;48.70
62809;DHT22;48848;39.002;-94.584;2022-09-27T10:42:55;19.70;48.60
62809;DHT22;48848;39.002;-94.584;2022-09-27T10:45:29;19.70;48.70
62809;DHT22;48848;39.002;-94.584;2022-09-27T10:47:56;19.70;48.70
62809;DHT22;48848;39.002;-94.584;2022-09-27T10:50:24;19.70;48.80
62809;DHT22;48848;39.002;-94.584;2022-09-27T10:53:04;19.70;48.80
62809;DHT22;48848;39.002;-94.584;2022-09-27T10:55:33;19.70;48.70
62809;DHT22;48848;39.002;-94.584;2022-09-27T10:58:00;19.70;48.80
62809;DHT22;48848;39.002;-94.584;2022-09-27T11:00:32;19.60;48.80
62809;DHT22;48848;39.002;-94.584;2022-09-27T11:03:00;19.60;48.90
62809;DHT22;48848;39.002;-94.584;2022-09-27T11:05:35;19.60;48.80
62809;DHT22;48848;39.002;-94.584;2022-09-27T11:10:43;19.60;49.00
62809;DHT22;48848;39.002;-94.584;2022-09-27T11:13:16;19.60;48.90
62809;DHT22;48848;39.002;-94.584;2022-09-27T11:18:29;19.50;49.20
62809;DHT22;48848;39.002;-94.584;2022-09-27T11:24:01;19.50;49.10
62809;DHT22;48848;39.002;-94.584;2022-09-27T11:27:34;19.50;49.00
62809;DHT22;48848;39.002;-94.584;2022-09-27T11:29:32;19.50;49.10
62809;DHT22;48848;39.002;-94.584;2022-09-27T11:47:48;19.40;49.30
62809;DHT22;48848;39.002;-94.584;2022-09-27T12:11:18;19.30;49.40
62809;DHT22;48848;39.002;-94.584;2022-09-27T12:13:47;19.40;49.50
62809;DHT22;48848;39.002;-94.584;2022-09-27T12:16:15;19.30;49.50
62809;DHT22;48848;39.002;-94.584;2022-09-27T12:18:41;19.30;49.50
62809;DHT22;48848;39.002;-94.584;2022-09-27T12:21:09;19.20;49.30
62809;DHT22;48848;39.002;-94.584;2022-09-27T12:23:38;19.20;49.60
62809;DHT22;48848;39.002;-94.584;2022-09-27T12:26:09;19.20;49.40
62809;DHT22;48848;39.002;-94.584;2022-09-27T12:31:21;19.20;49.70
62809;DHT22;48848;39.002;-94.584;2022-09-27T12:36:22;19.10;49.60
62809;DHT22;48848;39.002;-94.584;2022-09-27T12:39:00;19.10;49.80
62809;DHT22;48848;39.002;-94.584;2022-09-27T12:41:26;19.10;50.10
62809;DHT22;48848;39.002;-94.584;2022-09-27T12:43:55;19.10;49.80
62809;DHT22;48848;39.002;-94.584;2022-09-27T12:51:45;19.10;49.70
62809;DHT22;48848;39.002;-94.584;2022-09-27T12:59:39;19.10;50.00
62809;DHT22;48848;39.002;-94.584;2022-09-27T13:12:51;19.00;50.70
62809;DHT22;48848;39.002;-94.584;2022-09-27T13:22:53;19.00;50.20
62809;DHT22;48848;39.002;-94.584;2022-09-27T13:28:29;19.00;50.40
62809;DHT22;48848;39.002;-94.584;2022-09-27T13:30:49;19.00;50.30
62809;DHT22;48848;39.002;-94.584;2022-09-27T13:36:04;18.90;50.40
62809;DHT22;48848;39.002;-94.584;2022-09-27T13:38:30;18.90;50.40
62809;DHT22;48848;39.002;-94.584;2022-09-27T13:41:18;18.90;50.70
62809;DHT22;48848;39.002;-94.584;2022-09-27T13:43:56;18.90;50.30
62809;DHT22;48848;39.002;-94.584;2022-09-27T13:46:29;18.90;51.00
62809;DHT22;48848;39.002;-94.584;2022-09-27T13:48:57;18.90;51.40
62809;DHT22;48848;39.002;-94.584;2022-09-27T13:51:30;18.90;52.30
62809;DHT22;48848;39.002;-94.584;2022-09-27T13:54:03;18.90;53.30
62809;DHT22;48848;39.002;-94.584;2022-09-27T13:59:03;19.00;54.00
62809;DHT22;48848;39.002;-94.584;2022-09-27T14:01:35;19.00;54.60
62809;DHT22;48848;39.002;-94.584;2022-09-27T14:04:09;19.00;53.60
62809;DHT22;48848;39.002;-94.584;2022-09-27T14:06:40;19.10;53.70
62809;DHT22;48848;39.002;-94.584;2022-09-27T14:09:13;19.10;53.80
62809;DHT22;48848;39.002;-94.584;2022-09-27T14:11:41;19.10;54.60
62809;DHT22;48848;39.002;-94.584;2022-09-27T14:14:15;19.10;56.40
62809;DHT22;48848;39.002;-94.584;2022-09-27T14:16:43;19.10;56.40
62809;DHT22;48848;39.002;-94.584;2022-09-27T14:19:13;19.10;56.40
62809;DHT22;48848;39.002;-94.584;2022-09-27T14:21:41;19.10;56.80
62809;DHT22;48848;39.002;-94.584;2022-09-27T14:24:20;19.20;56.10
62809;DHT22;48848;39.002;-94.584;2022-09-27T14:26:46;19.30;58.00
62809;DHT22;48848;39.002;-94.584;2022-09-27T14:29:20;19.30;57.50
62809;DHT22;48848;39.002;-94.584;2022-09-27T14:31:47;19.30;57.90
62809;DHT22;48848;39.002;-94.584;2022-09-27T14:34:27;19.30;57.70
62809;DHT22;48848;39.002;-94.584;2022-09-27T14:36:53;19.30;57.80
62809;DHT22;48848;39.002;-94.584;2022-09-27T14:39:38;19.30;57.40
62809;DHT22;48848;39.002;-94.584;2022-09-27T14:42:21;19.30;57.90
62809;DHT22;48848;39.002;-94.584;2022-09-27T14:44:49;19.30;57.80
62809;DHT22;48848;39.002;-94.584;2022-09-27T14:47:23;19.40;59.30
62809;DHT22;48848;39.002;-94.584;2022-09-27T14:52:19;19.50;58.50
62809;DHT22;48848;39.002;-94.584;2022-09-27T14:55:20;19.50;58.10
62809;DHT22;48848;39.002;-94.584;2022-09-27T14:57:38;19.50;58.90
62809;DHT22;48848;39.002;-94.584;2022-09-27T15:00:17;19.50;57.80
62809;DHT22;48848;39.002;-94.584;2022-09-27T15:02:45;19.60;59.90
62809;DHT22;48848;39.002;-94.584;2022-09-27T15:05:15;19.60;59.00
62809;DHT22;48848;39.002;-94.584;2022-09-27T15:07:42;19.50;59.00
62809;DHT22;48848;39.002;-94.584;2022-09-27T15:10:18;19.50;59.00
62809;DHT22;48848;39.002;-94.584;2022-09-27T15:12:46;19.50;59.10
62809;DHT22;48848;39.002;-94.584;2022-09-27T15:15:13;19.60;58.70
62809;DHT22;48848;39.002;-94.584;2022-09-27T15:17:41;19.60;58.50
62809;DHT22;48848;39.002;-94.584;2022-09-27T15:22:43;19.70;59.30
62809;DHT22;48848;39.002;-94.584;2022-09-27T15:27:45;19.70;57.90
62809;DHT22;48848;39.002;-94.584;2022-09-27T15:30:14;19.70;57.20
62809;DHT22;48848;39.002;-94.584;2022-09-27T15:32:46;19.70;57.20
62809;DHT22;48848;39.002;-94.584;2022-09-27T15:35:14;19.70;56.90
62809;DHT22;48848;39.002;-94.584;2022-09-27T15:37:42;19.80;56.60
62809;DHT22;48848;39.002;-94.584;2022-09-27T15:45:41;19.90;55.70
62809;DHT22;48848;39.002;-94.584;2022-09-27T15:48:14;19.90;56.40
62809;DHT22;48848;39.002;-94.584;2022-09-27T15:50:40;19.80;56.30
62809;DHT22;48848;39.002;-94.584;2022-09-27T15:53:07;19.80;55.90
62809;DHT22;48848;39.002;-94.584;2022-09-27T15:55:34;19.80;55.70
62809;DHT22;48848;39.002;-94.584;2022-09-27T15:58:05;19.80;55.50
62809;DHT22;48848;39.002;-94.584;2022-09-27T16:00:32;19.80;55.40
62809;DHT22;48848;39.002;-94.584;2022-09-27T16:03:00;19.80;55.20
62809;DHT22;48848;39.002;-94.584;2022-09-27T16:05:26;19.80;55.00
62809;DHT22;48848;39.002;-94.584;2022-09-27T16:07:53;19.80;54.80
62809;DHT22;48848;39.002;-94.584;2022-09-27T16:10:20;19.90;54.70
62809;DHT22;48848;39.002;-94.584;2022-09-27T16:12:46;19.90;54.50
62809;DHT22;48848;39.002;-94.584;2022-09-27T16:15:13;19.90;54.30
62809;DHT22;48848;39.002;-94.584;2022-09-27T16:17:39;20.00;54.20
62809;DHT22;48848;39.002;-94.584;2022-09-27T16:20:20;19.90;53.90
62809;DHT22;48848;39.002;-94.584;2022-09-27T16:22:47;20.00;53.90
62809;DHT22;48848;39.002;-94.584;2022-09-27T16:25:13;20.00;53.70
62809;DHT22;48848;39.002;-94.584;2022-09-27T16:27:39;20.00;53.70
62809;DHT22;48848;39.002;-94.584;2022-09-27T16:30:05;20.10;53.60
62809;DHT22;48848;39.002;-94.584;2022-09-27T16:32:32;20.10;53.50
62809;DHT22;48848;39.002;-94.584;2022-09-27T16:35:02;20.10;53.30
62809;DHT22;48848;39.002;-94.584;2022-09-27T16:37:28;20.10;53.40
62809;DHT22;48848;39.002;-94.584;2022-09-27T16:39:54;20.20;53.20
62809;DHT22;48848;39.002;-94.584;2022-09-27T16:42:20;20.20;53.00
62809;DHT22;48848;39.002;-94.584;2022-09-27T16:44:46;20.20;53.00
62809;DHT22;48848;39.002;-94.584;2022-09-27T16:47:14;20.30;52.90
62809;DHT22;48848;39.002;-94.584;2022-09-27T16:49:40;20.30;52.70
62809;DHT22;48848;39.002;-94.584;2022-09-27T16:52:25;20.30;52.50
62809;DHT22;48848;39.002;-94.584;2022-09-27T16:54:51;20.30;52.40
62809;DHT22;48848;39.002;-94.584;2022-09-27T16:57:16;20.30;52.30
62809;DHT22;48848;39.002;-94.584;2022-09-27T16:59:42;20.40;52.20
62809;DHT22;48848;39.002;-94.584;2022-09-27T17:02:08;20.40;51.90
62809;DHT22;48848;39.002;-94.584;2022-09-27T17:04:34;20.40;51.70
62809;DHT22;48848;39.002;-94.584;2022-09-27T17:07:00;20.40;51.70
62809;DHT22;48848;39.002;-94.584;2022-09-27T17:09:26;20.50;51.20
62809;DHT22;48848;39.002;-94.584;2022-09-27T17:11:52;20.50;51.10
62809;DHT22;48848;39.002;-94.584;2022-09-27T17:14:19;20.50;50.90
62809;DHT22;48848;39.002;-94.584;2022-09-27T17:16:46;20.50;50.80
62809;DHT22;48848;39.002;-94.584;2022-09-27T17:19:12;20.60;51.00
62809;DHT22;48848;39.002;-94.584;2022-09-27T17:21:39;20.60;50.60
62809;DHT22;48848;39.002;-94.584;2022-09-27T17:24:05;20.70;50.60
62809;DHT22;48848;39.002;-94.584;2022-09-27T17:26:31;20.70;51.20
62809;DHT22;48848;39.002;-94.584;2022-09-27T17:28:57;20.70;50.60
62809;DHT22;48848;39.002;-94.584;2022-09-27T17:31:25;20.80;51.00
62809;DHT22;48848;39.002;-94.584;2022-09-27T17:33:52;20.80;50.90
62809;DHT22;48848;39.002;-94.584;2022-09-27T17:36:22;20.80;50.70
62809;DHT22;48848;39.002;-94.584;2022-09-27T17:38:49;20.90;50.70
62809;DHT22;48848;39.002;-94.584;2022-09-27T17:41:16;20.90;50.60
62809;DHT22;48848;39.002;-94.584;2022-09-27T17:43:43;20.90;50.20
62809;DHT22;48848;39.002;-94.584;2022-09-27T17:46:19;20.90;50.20
62809;DHT22;48848;39.002;-94.584;2022-09-27T17:48:45;21.00;50.30
62809;DHT22;48848;39.002;-94.584;2022-09-27T17:51:30;21.00;50.40
62809;DHT22;48848;39.002;-94.584;2022-09-27T17:53:56;21.10;50.60
62809;DHT22;48848;39.002;-94.584;2022-09-27T17:56:22;21.10;50.40
62809;DHT22;48848;39.002;-94.584;2022-09-27T17:58:48;21.10;50.50
62809;DHT22;48848;39.002;-94.584;2022-09-27T18:01:15;21.10;50.30
62809;DHT22;48848;39.002;-94.584;2022-09-27T18:03:41;21.20;50.00
62809;DHT22;48848;39.002;-94.584;2022-09-27T18:06:07;21.20;50.30
62809;DHT22;48848;39.002;-94.584;2022-09-27T18:08:33;21.20;50.20
62809;DHT22;48848;39.002;-94.584;2022-09-27T18:11:03;21.30;50.30